Time;durP1;ratioP1;P1;durP2;ratioP2;P2;SDS_P1;SDS_P2;PMS_P1;PMS_P2;Temp;Humidity;BMP_temperature;BMP_pressure;BME280_temperature;BME280_humidity;BME280_pressure;Samples;Min_cycle;Max_cycle;Signal;HPM_P1;HPM_P2
2021/07/27 00:02:12;;;;;;;3.85;2.67;;;26.90;55.60;;;;;;5071069;28;20095;-74
2021/07/27 00:04:39;;;;;;;4.78;3.70;;;26.90;55.70;;;;;;5068687;28;20048;-74
2021/07/27 00:07:06;;;;;;;4.22;3.40;;;26.90;55.60;;;;;;5070716;28;20048;-74
2021/07/27 00:09:33;;;;;;;3.72;3.10;;;26.90;55.60;;;;;;5069538;28;20102;-75
2021/07/27 00:12:01;;;;;;;5.72;3.33;;;26.90;55.60;;;;;;5070235;28;20489;-74
2021/07/27 00:14:29;;;;;;;6.05;3.50;;;26.90;55.60;;;;;;5069964;28;20087;-74
2021/07/27 00:16:56;;;;;;;5.47;4.05;;;26.90;55.70;;;;;;5070817;28;20117;-74
2021/07/27 00:19:23;;;;;;;4.30;3.20;;;26.90;55.70;;;;;;5070892;28;20166;-74
2021/07/27 00:21:50;;;;;;;9.43;3.38;;;26.90;55.60;;;;;;5069289;28;20040;-74
2021/07/27 00:24:17;;;;;;;4.60;3.38;;;26.90;55.60;;;;;;5071009;28;20453;-74
2021/07/27 00:26:46;;;;;;;6.25;3.83;;;26.90;55.70;;;;;;5070082;28;20048;-74
2021/07/27 00:29:13;;;;;;;3.72;2.80;;;26.90;55.70;;;;;;5069322;28;20114;-74
2021/07/27 00:31:41;;;;;;;4.95;3.90;;;26.80;55.60;;;;;;5060689;28;20044;-74
2021/07/27 00:34:08;;;;;;;5.15;3.55;;;26.90;55.70;;;;;;5050673;28;20076;-74
2021/07/27 00:36:35;;;;;;;3.60;3.30;;;26.90;55.70;;;;;;5049918;28;20520;-74
2021/07/27 00:39:03;;;;;;;6.05;4.00;;;26.90;55.70;;;;;;5055259;28;20104;-74
2021/07/27 00:41:30;;;;;;;4.13;3.22;;;26.90;55.70;;;;;;5070004;28;20079;-73
2021/07/27 00:43:57;;;;;;;5.22;3.15;;;26.90;55.70;;;;;;5069828;28;20108;-74
2021/07/27 00:46:24;;;;;;;4.38;3.72;;;26.90;55.80;;;;;;5070506;28;20051;-74
2021/07/27 00:48:52;;;;;;;5.55;3.47;;;26.80;55.80;;;;;;5069977;28;20049;-74
2021/07/27 00:51:20;;;;;;;4.18;3.25;;;26.80;55.70;;;;;;5068766;28;20099;-74
2021/07/27 00:53:47;;;;;;;4.03;3.28;;;26.80;55.70;;;;;;5070060;28;20083;-73
2021/07/27 00:56:14;;;;;;;5.75;3.25;;;26.80;55.70;;;;;;5069649;28;20137;-74
2021/07/27 00:58:42;;;;;;;5.18;3.75;;;26.80;55.80;;;;;;5068402;28;20493;-73
2021/07/27 01:01:09;;;;;;;7.05;3.42;;;26.80;55.80;;;;;;5068751;28;20504;-74
2021/07/27 01:03:38;;;;;;;6.32;3.70;;;26.80;55.80;;;;;;5069931;28;20044;-74
2021/07/27 01:06:05;;;;;;;5.57;3.78;;;26.80;55.80;;;;;;5069422;28;20044;-73
2021/07/27 01:08:35;;;;;;;4.65;3.50;;;26.80;55.80;;;;;;5069803;28;20049;-74
2021/07/27 01:11:04;;;;;;;4.57;3.28;;;26.80;55.80;;;;;;5069823;28;20428;-74
2021/07/27 01:13:31;;;;;;;5.15;3.28;;;26.80;55.80;;;;;;5069455;28;20055;-74
2021/07/27 01:16:03;;;;;;;5.78;3.65;;;26.80;55.90;;;;;;5069509;28;20589;-74
2021/07/27 01:18:37;;;;;;;6.30;3.45;;;26.80;55.90;;;;;;5068910;28;20084;-74
2021/07/27 01:37:53;;;;;;;5.15;3.63;;;26.80;55.90;;;;;;5068845;28;20053;-74
2021/07/27 01:40:23;;;;;;;5.43;3.63;;;26.80;55.90;;;;;;5069685;28;20072;-74
2021/07/27 01:42:50;;;;;;;;;;;26.80;55.90;;;;;;5069118;28;20147;-74
2021/07/27 01:45:18;;;;;;;6.07;3.20;;;26.80;55.90;;;;;;5068829;28;20332;-73
2021/07/27 01:47:45;;;;;;;4.47;3.88;;;26.80;55.90;;;;;;5068401;28;20631;-74
2021/07/27 01:50:14;;;;;;;7.68;3.90;;;26.80;55.90;;;;;;5069027;28;20045;-74
2021/07/27 01:52:46;;;;;;;3.58;3.20;;;26.80;56.00;;;;;;5068705;28;20048;-74
2021/07/27 01:55:16;;;;;;;3.95;3.38;;;26.80;56.00;;;;;;5068599;28;20048;-74
2021/07/27 01:57:43;;;;;;;4.80;3.28;;;26.80;56.00;;;;;;5068869;28;20431;-74
2021/07/27 02:00:11;;;;;;;3.97;3.30;;;26.80;56.00;;;;;;5068329;28;20139;-74
2021/07/27 02:02:38;;;;;;;4.53;3.63;;;26.80;56.00;;;;;;5067247;28;20493;-74
2021/07/27 02:05:08;;;;;;;4.55;3.42;;;26.80;56.00;;;;;;5068837;28;20059;-74
2021/07/27 02:07:38;;;;;;;5.35;3.47;;;26.80;56.00;;;;;;5067849;28;20090;-74
2021/07/27 02:10:09;;;;;;;4.55;3.28;;;26.80;56.00;;;;;;5067527;28;20045;-74
2021/07/27 02:12:38;;;;;;;5.68;3.78;;;26.80;56.10;;;;;;5068029;28;20136;-74
2021/07/27 02:15:20;;;;;;;5.57;3.85;;;26.80;56.10;;;;;;5067390;28;20132;-73
2021/07/27 02:17:47;;;;;;;4.70;3.47;;;26.80;56.10;;;;;;5065957;28;20083;-73
2021/07/27 02:20:15;;;;;;;5.28;3.10;;;26.80;56.10;;;;;;5068390;28;20596;-74
2021/07/27 02:22:43;;;;;;;5.55;3.50;;;26.80;56.10;;;;;;5067969;28;20084;-74
2021/07/27 02:25:11;;;;;;;3.80;3.17;;;26.80;56.10;;;;;;5068264;28;20048;-74
2021/07/27 02:27:39;;;;;;;4.55;3.63;;;26.80;56.10;;;;;;5067038;28;20052;-73
2021/07/27 02:30:07;;;;;;;3.60;3.30;;;26.80;56.10;;;;;;5068171;28;20131;-74
2021/07/27 02:32:35;;;;;;;4.95;3.80;;;26.80;56.10;;;;;;5066595;28;20045;-74
2021/07/27 02:35:03;;;;;;;4.85;3.22;;;26.80;56.10;;;;;;5068720;28;20041;-74
2021/07/27 02:37:31;;;;;;;5.20;4.07;;;26.80;56.10;;;;;;5067169;28;20048;-74
2021/07/27 02:39:59;;;;;;;4.43;3.70;;;26.80;56.20;;;;;;5068151;28;20080;-74
2021/07/27 02:42:26;;;;;;;4.28;3.88;;;26.80;56.10;;;;;;5066726;28;20040;-74
2021/07/27 02:44:53;;;;;;;6.72;4.35;;;26.80;56.20;;;;;;5068187;28;20765;-74
2021/07/27 02:47:21;;;;;;;7.88;3.67;;;26.80;56.20;;;;;;5065518;28;20083;-74
2021/07/27 02:49:49;;;;;;;4.65;3.97;;;26.80;56.20;;;;;;5066651;28;20052;-74
2021/07/27 02:52:16;;;;;;;7.18;3.70;;;26.80;56.10;;;;;;5066681;28;20500;-74
2021/07/27 02:54:43;;;;;;;4.95;4.10;;;26.80;56.20;;;;;;5067016;28;20136;-74
2021/07/27 02:57:10;;;;;;;5.45;3.80;;;26.80;56.20;;;;;;5067876;28;20136;-74
2021/07/27 02:59:37;;;;;;;4.55;3.88;;;26.80;56.20;;;;;;5066523;28;20128;-73
2021/07/27 03:02:05;;;;;;;4.15;3.67;;;26.80;56.10;;;;;;5068390;28;20082;-74
2021/07/27 03:04:32;;;;;;;5.35;3.95;;;26.80;56.20;;;;;;5065775;28;20075;-74
2021/07/27 03:06:59;;;;;;;5.63;4.25;;;26.80;56.20;;;;;;5067764;28;20064;-73
2021/07/27 03:09:29;;;;;;;4.57;3.83;;;26.80;56.20;;;;;;5067735;28;20048;-73
2021/07/27 03:11:57;;;;;;;5.65;3.72;;;26.80;56.20;;;;;;5068011;28;20045;-73
2021/07/27 03:14:26;;;;;;;4.68;4.00;;;26.80;56.30;;;;;;5067286;28;20071;-73
2021/07/27 03:16:55;;;;;;;5.83;4.50;;;26.80;56.20;;;;;;5067846;28;20045;-74
2021/07/27 03:19:22;;;;;;;6.07;4.05;;;26.80;56.20;;;;;;5065889;28;20813;-74
2021/07/27 03:21:49;;;;;;;5.30;4.00;;;26.80;56.20;;;;;;5068009;28;20071;-74
2021/07/27 03:24:16;;;;;;;5.40;3.60;;;26.80;56.20;;;;;;5067968;28;20049;-74
2021/07/27 03:26:44;;;;;;;4.95;3.60;;;26.80;56.20;;;;;;5067619;28;20066;-73
2021/07/27 03:29:11;;;;;;;4.05;3.45;;;26.80;56.20;;;;;;5066454;28;20144;-73
2021/07/27 03:31:38;;;;;;;9.48;4.15;;;26.80;56.20;;;;;;5067830;28;20087;-74
2021/07/27 03:34:05;;;;;;;5.03;3.55;;;26.80;56.20;;;;;;5067537;28;20072;-69
2021/07/27 03:36:32;;;;;;;6.45;3.58;;;26.80;56.20;;;;;;5067466;28;20072;-74
2021/07/27 03:39:00;;;;;;;4.28;3.88;;;26.80;56.20;;;;;;5065711;28;20070;-69
2021/07/27 03:41:27;;;;;;;4.45;3.58;;;26.80;56.20;;;;;;5066640;28;20045;-69
2021/07/27 03:43:54;;;;;;;5.50;3.50;;;26.80;56.20;;;;;;5067613;28;20471;-73
2021/07/27 03:46:21;;;;;;;4.97;4.05;;;26.80;56.10;;;;;;5065111;28;20404;-74
2021/07/27 03:48:49;;;;;;;9.82;3.70;;;26.80;56.10;;;;;;5067057;28;20049;-73
2021/07/27 03:51:17;;;;;;;4.65;3.75;;;26.80;56.10;;;;;;5067382;28;20135;-74
2021/07/27 03:53:44;;;;;;;7.63;3.88;;;26.80;56.10;;;;;;5065480;28;20055;-74
2021/07/27 03:56:11;;;;;;;4.63;3.60;;;26.80;56.10;;;;;;5049582;28;20619;-74
2021/07/27 03:58:42;;;;;;;6.32;4.13;;;26.80;56.00;;;;;;5054062;28;20037;-74
2021/07/27 04:01:10;;;;;;;5.47;3.88;;;26.80;56.00;;;;;;5056198;28;20048;-74
2021/07/27 04:03:37;;;;;;;5.20;3.28;;;26.80;56.00;;;;;;5055541;28;20500;-75
2021/07/27 04:06:04;;;;;;;6.45;4.45;;;26.80;55.90;;;;;;5057641;28;20068;-74
2021/07/27 04:08:32;;;;;;;7.10;3.83;;;26.90;55.90;;;;;;5058982;28;20525;-74
2021/07/27 04:11:04;;;;;;;6.30;3.53;;;26.90;55.80;;;;;;5058550;28;20041;-74
2021/07/27 04:13:33;;;;;;;7.15;4.13;;;26.90;55.80;;;;;;5050741;28;20041;-73
2021/07/27 04:16:01;;;;;;;5.15;4.10;;;26.90;55.70;;;;;;5054645;28;20212;-74
2021/07/27 04:18:29;;;;;;;5.22;4.28;;;26.90;55.70;;;;;;5070102;28;20044;-74
2021/07/27 04:21:01;;;;;;;6.22;4.18;;;27.00;55.70;;;;;;5069095;28;20072;-74
2021/07/27 04:23:28;;;;;;;4.05;3.67;;;27.00;55.70;;;;;;5069132;28;20139;-74
2021/07/27 04:25:56;;;;;;;5.15;4.10;;;27.00;55.60;;;;;;5067108;28;20123;-74
2021/07/27 04:28:27;;;;;;;5.80;3.85;;;27.00;55.60;;;;;;5067461;28;20052;-73
2021/07/27 04:30:54;;;;;;;4.90;3.95;;;27.00;55.50;;;;;;5064711;28;20539;-74
2021/07/27 04:33:41;;;;;;;3.75;3.45;;;27.00;55.40;;;;;;5051160;28;20139;-72
2021/07/27 04:36:09;;;;;;;4.30;3.63;;;27.10;55.40;;;;;;5049963;28;20639;-73
2021/07/27 04:38:37;;;;;;;5.53;4.13;;;27.10;55.40;;;;;;5050304;28;20485;-74
2021/07/27 04:41:10;;;;;;;4.38;3.30;;;27.10;55.30;;;;;;5067982;28;20130;-74
2021/07/27 04:43:39;;;;;;;5.88;4.03;;;27.10;55.10;;;;;;5068427;28;20049;-74
2021/07/27 04:46:07;;;;;;;4.43;4.00;;;27.20;55.10;;;;;;5067350;28;20144;-74
2021/07/27 04:48:37;;;;;;;6.90;3.92;;;27.20;55.10;;;;;;5059283;28;20056;-73
2021/07/27 04:51:04;;;;;;;6.65;3.97;;;27.10;55.00;;;;;;5058907;28;20037;-74
2021/07/27 04:53:35;;;;;;;7.80;4.15;;;27.20;55.00;;;;;;5056098;28;20040;-74
2021/07/27 04:56:03;;;;;;;4.22;3.53;;;27.20;55.00;;;;;;5056297;28;20051;-74
2021/07/27 04:58:46;;;;;;;4.75;3.88;;;27.20;55.00;;;;;;5060548;28;20052;-74
2021/07/27 05:01:13;;;;;;;6.43;4.00;;;27.20;54.90;;;;;;5055765;28;20054;-74
2021/07/27 05:03:41;;;;;;;4.88;4.20;;;27.20;54.90;;;;;;5057171;28;20063;-75
2021/07/27 05:06:08;;;;;;;6.60;3.70;;;27.30;54.90;;;;;;5056677;28;20127;-74
2021/07/27 05:08:36;;;;;;;5.30;3.85;;;27.20;54.80;;;;;;5062792;28;20051;-74
2021/07/27 05:11:03;;;;;;;7.00;3.55;;;27.20;55.00;;;;;;5064035;28;20056;-73
2021/07/27 05:13:30;;;;;;;3.65;3.33;;;27.10;55.00;;;;;;5048558;28;20079;-76
2021/07/27 05:16:02;;;;;;;4.20;3.20;;;27.00;55.30;;;;;;5056204;28;20036;-72
2021/07/27 05:18:29;;;;;;;5.18;3.83;;;26.80;55.50;;;;;;5052389;28;20054;-74
2021/07/27 05:20:56;;;;;;;6.03;3.70;;;26.70;55.80;;;;;;5054347;28;20467;-70
2021/07/27 05:23:30;;;;;;;5.57;3.70;;;26.50;56.20;;;;;;5055411;28;20041;-72
2021/07/27 05:25:57;;;;;;;3.90;3.55;;;26.30;57.10;;;;;;5058542;28;20102;-69
2021/07/27 05:28:27;;;;;;;5.75;4.22;;;26.10;58.30;;;;;;5058603;28;20088;-71
2021/07/27 05:30:54;;;;;;;5.78;4.03;;;25.80;59.30;;;;;;5057046;28;20724;-74
2021/07/27 05:33:22;;;;;;;5.88;4.53;;;25.60;60.20;;;;;;5054086;28;20136;-69
2021/07/27 05:35:49;;;;;;;5.93;4.32;;;25.40;60.80;;;;;;5044658;28;20080;-73
2021/07/27 05:38:17;;;;;;;5.32;4.35;;;25.30;61.10;;;;;;5051407;28;20138;-73
2021/07/27 05:40:54;;;;;;;4.25;3.85;;;25.10;61.90;;;;;;5051523;28;20049;-73
2021/07/27 05:43:21;;;;;;;7.88;4.22;;;25.00;61.70;;;;;;5054897;28;20058;-69
2021/07/27 05:45:48;;;;;;;6.53;4.70;;;24.90;62.10;;;;;;5053075;28;20776;-72
2021/07/27 05:48:15;;;;;;;5.80;4.38;;;24.80;62.40;;;;;;5052543;28;20041;-73
2021/07/27 05:50:43;;;;;;;8.73;4.93;;;24.70;62.40;;;;;;5048692;28;20052;-72
2021/07/27 05:53:10;;;;;;;6.07;4.47;;;24.60;62.40;;;;;;5047960;28;20136;-67
2021/07/27 05:55:37;;;;;;;10.52;5.10;;;24.60;62.40;;;;;;5055913;28;20200;-72
2021/07/27 05:58:04;;;;;;;5.78;4.30;;;24.50;62.70;;;;;;5054121;28;20477;-68
2021/07/27 06:00:35;;;;;;;9.68;4.90;;;24.50;62.80;;;;;;5051635;28;20044;-67
2021/07/27 06:03:04;;;;;;;10.63;5.50;;;24.40;63.00;;;;;;5046202;28;20150;-69
2021/07/27 06:05:31;;;;;;;7.13;5.18;;;24.40;63.30;;;;;;5049983;28;20057;-65
2021/07/27 06:07:58;;;;;;;9.45;6.25;;;24.40;63.60;;;;;;5052238;28;20040;-59
2021/07/27 06:10:25;;;;;;;12.48;5.40;;;24.40;63.60;;;;;;5053495;28;20131;-67
2021/07/27 06:12:52;;;;;;;8.40;5.47;;;24.40;63.80;;;;;;5047406;28;20242;-66
2021/07/27 06:15:19;;;;;;;7.22;5.22;;;24.40;64.20;;;;;;5044903;28;20135;-67
2021/07/27 06:17:46;;;;;;;8.70;5.68;;;24.40;64.60;;;;;;5052367;28;20535;-72
2021/07/27 06:20:14;;;;;;;6.68;5.03;;;24.30;64.70;;;;;;5048888;28;20211;-68
2021/07/27 06:22:42;;;;;;;7.28;5.20;;;24.30;64.90;;;;;;5046362;28;20037;-67
2021/07/27 06:25:12;;;;;;;10.90;5.32;;;24.30;64.90;;;;;;5048889;28;20137;-68
2021/07/27 06:27:39;;;;;;;14.02;5.60;;;24.30;65.00;;;;;;5051819;28;20069;-67
2021/07/27 06:30:09;;;;;;;14.90;5.82;;;24.30;65.20;;;;;;5051556;28;20056;-65
2021/07/27 06:32:36;;;;;;;9.25;5.47;;;24.30;65.40;;;;;;5045563;28;20060;-62
2021/07/27 06:35:04;;;;;;;8.38;5.28;;;24.30;65.70;;;;;;5051479;28;20048;-61
2021/07/27 06:37:31;;;;;;;8.50;5.38;;;24.20;65.60;;;;;;5051482;28;20123;-61
2021/07/27 06:39:58;;;;;;;11.80;5.32;;;24.20;65.70;;;;;;5049383;28;20164;-61
2021/07/27 06:42:25;;;;;;;10.68;5.50;;;24.20;65.70;;;;;;5049227;28;20136;-60
2021/07/27 06:44:53;;;;;;;10.02;4.90;;;24.30;65.90;;;;;;5048165;28;20049;-66
2021/07/27 06:47:20;;;;;;;10.40;5.55;;;24.30;65.80;;;;;;5050223;28;20132;-62
2021/07/27 06:49:47;;;;;;;13.90;6.25;;;24.30;65.80;;;;;;5048744;28;20048;-68
2021/07/27 06:52:19;;;;;;;13.25;5.50;;;24.30;65.80;;;;;;5047031;28;20123;-64
2021/07/27 06:54:46;;;;;;;9.43;5.65;;;24.30;65.80;;;;;;5052652;28;20067;-62
2021/07/27 06:57:13;;;;;;;16.08;6.45;;;24.40;65.90;;;;;;5049982;28;20139;-60
2021/07/27 06:59:40;;;;;;;14.63;6.93;;;24.40;65.50;;;;;;5049440;28;20054;-65
2021/07/27 07:02:07;;;;;;;10.80;6.38;;;24.40;65.50;;;;;;5052653;28;20087;-62
2021/07/27 07:04:35;;;;;;;8.75;5.35;;;24.40;65.40;;;;;;5046771;28;20067;-62
2021/07/27 07:07:02;;;;;;;12.27;6.72;;;24.50;65.50;;;;;;5049161;28;20131;-62
2021/07/27 07:09:30;;;;;;;10.27;5.68;;;24.40;65.60;;;;;;5048915;28;20055;-62
2021/07/27 07:11:57;;;;;;;9.77;6.18;;;24.50;65.60;;;;;;5045152;28;20048;-65
2021/07/27 07:14:24;;;;;;;17.02;6.20;;;24.50;65.60;;;;;;5044311;28;20131;-64
2021/07/27 07:16:52;;;;;;;13.48;5.60;;;24.50;65.50;;;;;;5044896;28;20041;-66
2021/07/27 07:19:19;;;;;;;8.68;4.85;;;24.50;65.40;;;;;;5046627;28;20403;-60
2021/07/27 07:21:47;;;;;;;10.85;5.50;;;24.50;65.20;;;;;;5044000;28;20068;-66
2021/07/27 07:24:14;;;;;;;12.85;5.53;;;24.50;65.20;;;;;;5048173;28;20072;-60
2021/07/27 07:26:41;;;;;;;12.52;5.75;;;24.50;65.10;;;;;;5046378;28;20137;-61
2021/07/27 07:29:08;;;;;;;11.45;5.28;;;24.50;65.00;;;;;;5043705;28;20075;-60
2021/07/27 07:31:35;;;;;;;10.15;5.28;;;24.50;65.00;;;;;;5048628;28;20542;-62
2021/07/27 07:34:03;;;;;;;14.45;5.38;;;24.50;65.00;;;;;;5051313;28;20049;-62
2021/07/27 07:36:30;;;;;;;9.18;5.25;;;24.50;65.00;;;;;;5042361;28;20847;-59
2021/07/27 07:38:57;;;;;;;9.13;5.40;;;24.50;65.00;;;;;;5051730;28;20075;-62
2021/07/27 07:41:25;;;;;;;7.00;4.78;;;24.60;65.10;;;;;;5058620;28;20159;-62
2021/07/27 07:43:53;;;;;;;7.18;5.03;;;24.60;65.10;;;;;;5053678;28;20048;-64
2021/07/27 07:46:20;;;;;;;8.77;4.57;;;24.50;65.10;;;;;;5054648;28;20111;-63
2021/07/27 07:48:48;;;;;;;8.95;4.60;;;24.60;65.10;;;;;;5054775;28;20055;-62
2021/07/27 07:51:15;;;;;;;10.23;5.80;;;24.60;65.10;;;;;;5052706;28;20132;-67
2021/07/27 07:53:42;;;;;;;5.65;4.45;;;24.60;65.10;;;;;;5052077;28;20144;-62
2021/07/27 07:56:09;;;;;;;10.13;5.05;;;24.70;65.10;;;;;;5060788;28;20134;-63
2021/07/27 07:58:37;;;;;;;11.35;5.30;;;24.70;65.10;;;;;;5049745;28;20621;-62
2021/07/27 08:01:08;;;;;;;9.13;5.07;;;24.70;64.90;;;;;;5053824;28;20643;-61
2021/07/27 08:03:35;;;;;;;10.25;5.90;;;24.80;64.80;;;;;;5052116;28;20797;-62
2021/07/27 08:06:03;;;;;;;9.68;4.97;;;24.80;64.70;;;;;;5054109;28;20106;-62
2021/07/27 08:08:30;;;;;;;9.75;5.35;;;24.80;64.90;;;;;;5054667;28;20041;-61
2021/07/27 08:10:57;;;;;;;6.05;4.20;;;24.90;64.70;;;;;;5055563;28;20089;-65
2021/07/27 08:13:24;;;;;;;7.82;4.38;;;24.90;64.60;;;;;;5052334;28;20143;-66
2021/07/27 08:15:51;;;;;;;6.00;4.47;;;25.00;64.40;;;;;;5049629;28;20132;-62
2021/07/27 08:18:19;;;;;;;9.85;5.28;;;25.00;64.40;;;;;;5053359;28;20526;-61
2021/07/27 08:20:46;;;;;;;10.63;4.93;;;25.00;64.30;;;;;;5055212;28;20056;-60
2021/07/27 08:23:14;;;;;;;9.00;4.70;;;25.00;64.00;;;;;;5051203;28;20040;-64
2021/07/27 08:25:41;;;;;;;8.48;4.80;;;25.00;63.70;;;;;;5051974;28;20080;-63
2021/07/27 08:28:08;;;;;;;5.25;4.70;;;25.00;63.40;;;;;;5049952;28;20080;-58
2021/07/27 08:30:35;;;;;;;10.38;5.25;;;25.00;63.20;;;;;;5057088;28;20489;-58
2021/07/27 08:33:02;;;;;;;8.65;4.35;;;25.00;63.00;;;;;;5055953;28;20056;-58
2021/07/27 08:35:31;;;;;;;6.00;4.40;;;25.00;62.70;;;;;;5053595;28;20053;-66
2021/07/27 08:37:58;;;;;;;7.22;4.63;;;24.90;62.60;;;;;;5053773;28;20065;-66
2021/07/27 08:40:25;;;;;;;9.75;4.75;;;24.90;62.70;;;;;;5049189;28;20136;-68
2021/07/27 08:42:52;;;;;;;8.40;4.90;;;24.90;62.80;;;;;;5056662;28;20044;-67
2021/07/27 08:45:19;;;;;;;6.20;4.30;;;24.90;62.90;;;;;;5050117;28;20127;-67
2021/07/27 08:47:49;;;;;;;8.73;4.07;;;24.90;63.10;;;;;;5052929;28;20052;-65
2021/07/27 08:50:18;;;;;;;10.27;4.13;;;24.80;63.60;;;;;;5054272;28;20076;-63
2021/07/27 08:52:45;;;;;;;5.15;3.95;;;24.80;63.70;;;;;;5051882;28;20619;-64
2021/07/27 08:55:13;;;;;;;6.40;4.30;;;24.80;63.70;;;;;;5050142;28;20669;-61
2021/07/27 08:57:58;;;;;;;7.10;4.00;;;24.80;63.60;;;;;;5057790;28;20157;-61
2021/07/27 09:00:27;;;;;;;7.65;3.72;;;24.90;63.50;;;;;;5052689;28;20044;-63
2021/07/27 09:03:05;;;;;;;8.43;4.63;;;24.90;63.40;;;;;;5046545;28;20062;-59
2021/07/27 09:05:32;;;;;;;5.20;4.00;;;24.90;63.60;;;;;;5052553;28;20083;-64
2021/07/27 09:08:06;;;;;;;11.52;4.20;;;25.00;63.80;;;;;;5051698;28;20136;-69
2021/07/27 09:10:36;;;;;;;6.05;3.92;;;25.00;63.80;;;;;;5046997;28;20740;-68
2021/07/27 09:13:05;;;;;;;6.07;4.35;;;25.10;63.80;;;;;;5051421;28;20728;-65
2021/07/27 09:15:39;;;;;;;8.77;4.17;;;25.10;63.60;;;;;;5056150;28;20573;-66
2021/07/27 09:18:09;;;;;;;4.28;3.58;;;25.10;63.50;;;;;;5051629;28;20051;-69
2021/07/27 09:20:42;;;;;;;5.05;4.05;;;25.10;63.50;;;;;;5051141;28;20069;-70
2021/07/27 09:23:17;;;;;;;4.97;3.75;;;25.20;63.50;;;;;;5055343;28;20044;-63
2021/07/27 09:25:46;;;;;;;8.45;4.13;;;25.20;63.30;;;;;;5042969;28;20080;-67
2021/07/27 09:28:15;;;;;;;9.02;4.10;;;25.20;63.10;;;;;;5045361;28;20131;-64
2021/07/27 09:30:44;;;;;;;6.82;3.70;;;25.30;63.10;;;;;;5053411;28;20139;-68
2021/07/27 09:33:16;;;;;;;5.38;3.63;;;25.30;62.90;;;;;;5055197;28;20060;-70
2021/07/27 09:35:44;;;;;;;6.05;4.03;;;25.30;62.80;;;;;;5050634;28;20044;-63
2021/07/27 09:38:19;;;;;;;5.13;3.47;;;25.30;62.60;;;;;;5048738;28;20118;-64
2021/07/27 09:40:58;;;;;;;5.63;3.70;;;25.40;62.80;;;;;;5050306;28;20059;-60
2021/07/27 09:43:43;;;;;;;5.00;3.83;;;25.40;63.00;;;;;;5052404;28;20474;-65
2021/07/27 09:46:10;;;;;;;4.60;3.40;;;25.40;62.90;;;;;;5052391;28;20040;-64
2021/07/27 09:48:42;;;;;;;4.28;3.72;;;25.50;63.00;;;;;;5052639;28;20041;-60
2021/07/27 09:51:11;;;;;;;5.40;3.70;;;25.50;63.00;;;;;;5050251;28;20516;-66
2021/07/27 09:53:41;;;;;;;5.57;3.53;;;25.50;63.00;;;;;;5055927;28;20048;-61
2021/07/27 09:56:09;;;;;;;5.97;4.10;;;25.60;63.10;;;;;;5049893;28;20132;-65
2021/07/27 09:58:37;;;;;;;5.43;3.30;;;25.60;62.90;;;;;;5054334;28;20045;-64
2021/07/27 10:01:12;;;;;;;4.90;3.70;;;25.60;62.70;;;;;;5052390;28;20404;-62
2021/07/27 10:03:51;;;;;;;4.05;3.50;;;25.60;63.20;;;;;;5049724;28;20037;-63
2021/07/27 10:06:23;;;;;;;4.75;3.80;;;25.70;62.50;;;;;;5054467;28;20126;-66
2021/07/27 10:08:56;;;;;;;5.15;3.50;;;25.70;62.30;;;;;;5048670;28;20401;-62
2021/07/27 10:11:38;;;;;;;4.60;3.58;;;25.70;62.10;;;;;;5048975;28;20088;-64
2021/07/27 10:14:07;;;;;;;9.90;3.85;;;25.70;62.10;;;;;;5050801;28;20098;-64
2021/07/27 10:16:35;;;;;;;4.53;3.83;;;25.70;61.90;;;;;;5062236;28;20055;-64
2021/07/27 10:19:23;;;;;;;6.50;4.25;;;25.70;61.90;;;;;;5056181;28;20289;-62
2021/07/27 10:22:05;;;;;;;6.55;3.90;;;25.70;61.90;;;;;;5051980;28;20047;-63
2021/07/27 10:24:41;;;;;;;4.78;3.50;;;25.80;61.80;;;;;;5054170;28;20047;-63
2021/07/27 10:27:16;;;;;;;5.10;3.78;;;25.80;61.70;;;;;;5053468;28;20106;-64
2021/07/27 10:29:44;;;;;;;6.22;3.92;;;25.80;61.60;;;;;;5050383;28;20057;-61
2021/07/27 10:32:17;;;;;;;4.97;3.95;;;25.80;61.50;;;;;;5053153;28;20059;-60
2021/07/27 10:34:45;;;;;;;4.22;3.17;;;25.90;61.60;;;;;;5056484;28;20036;-61
2021/07/27 10:37:14;;;;;;;4.35;3.33;;;25.80;61.50;;;;;;5043480;28;20548;-60
2021/07/27 10:39:57;;;;;;;3.50;2.95;;;25.80;61.40;;;;;;5043321;28;20131;-59
2021/07/27 10:42:36;;;;;;;3.92;3.50;;;25.80;61.40;;;;;;5055019;28;20068;-67
2021/07/27 10:45:15;;;;;;;5.72;3.40;;;25.70;61.30;;;;;;5052364;28;20063;-62
2021/07/27 10:47:49;;;;;;;4.38;3.38;;;25.70;61.20;;;;;;5048239;28;20033;-59
2021/07/27 10:50:27;;;;;;;4.25;3.45;;;25.70;61.30;;;;;;5048528;28;20058;-60
2021/07/27 10:53:06;;;;;;;6.30;3.85;;;25.70;61.20;;;;;;5048644;28;20049;-62
2021/07/27 10:55:35;;;;;;;5.10;3.65;;;25.70;61.20;;;;;;5050459;28;20571;-63
2021/07/27 10:58:06;;;;;;;5.75;4.07;;;25.70;61.10;;;;;;5051972;28;20080;-63
2021/07/27 11:00:35;;;;;;;5.38;3.80;;;25.70;61.00;;;;;;5047383;28;20064;-64
2021/07/27 11:03:03;;;;;;;3.72;3.30;;;25.80;60.90;;;;;;5052302;28;20207;-64
2021/07/27 11:05:31;;;;;;;4.00;3.67;;;25.80;60.90;;;;;;5044281;28;20455;-63
2021/07/27 11:07:58;;;;;;;5.35;3.47;;;25.80;60.80;;;;;;5049880;28;20132;-64
2021/07/27 11:10:26;;;;;;;3.92;3.55;;;25.80;60.60;;;;;;5049165;28;20082;-65
2021/07/27 11:12:59;;;;;;;4.65;3.63;;;25.90;60.70;;;;;;5049737;28;20766;-64
2021/07/27 11:15:28;;;;;;;6.38;3.65;;;25.80;60.50;;;;;;5045898;28;20156;-63
2021/07/27 11:18:01;;;;;;;4.07;3.45;;;25.80;60.60;;;;;;5049665;28;20068;-64
2021/07/27 11:20:33;;;;;;;4.25;3.40;;;25.80;60.70;;;;;;5050524;28;20466;-60
2021/07/27 11:23:10;;;;;;;3.42;3.10;;;25.80;60.80;;;;;;5047827;28;20139;-59
2021/07/27 11:25:37;;;;;;;4.90;3.40;;;25.80;61.10;;;;;;5045508;28;20103;-58
2021/07/27 11:28:15;;;;;;;3.65;3.35;;;25.80;61.20;;;;;;5046785;28;20076;-62
2021/07/27 11:30:43;;;;;;;4.10;3.47;;;25.80;61.10;;;;;;5042640;28;20123;-59
2021/07/27 11:33:14;;;;;;;3.97;3.50;;;25.80;61.30;;;;;;5043661;28;20497;-62
2021/07/27 11:35:47;;;;;;;7.22;3.60;;;25.80;61.30;;;;;;5046052;28;20069;-62
2021/07/27 11:38:22;;;;;;;5.10;3.45;;;25.70;61.40;;;;;;5048584;28;20051;-60
2021/07/27 11:41:01;;;;;;;6.60;3.53;;;25.70;61.60;;;;;;5049254;28;20052;-65
2021/07/27 11:43:33;;;;;;;6.13;3.70;;;25.70;61.70;;;;;;5049792;28;20068;-59
2021/07/27 11:46:12;;;;;;;5.63;3.30;;;25.60;61.80;;;;;;5046611;28;20052;-63
2021/07/27 11:48:42;;;;;;;4.57;3.53;;;25.60;61.90;;;;;;5051007;28;20485;-64
2021/07/27 11:51:10;;;;;;;3.80;3.50;;;25.60;61.90;;;;;;5046532;28;20135;-63
2021/07/27 11:53:39;;;;;;;3.97;3.47;;;25.70;61.90;;;;;;5045149;28;20048;-60
2021/07/27 11:56:18;;;;;;;5.38;4.22;;;25.70;61.90;;;;;;5047623;28;20225;-62
2021/07/27 11:58:48;;;;;;;8.55;4.15;;;25.70;61.90;;;;;;5049336;28;20037;-66
2021/07/27 12:01:15;;;;;;;6.30;3.95;;;25.70;61.90;;;;;;5047682;28;20076;-63
2021/07/27 12:03:43;;;;;;;5.85;3.65;;;25.60;61.80;;;;;;5047753;28;20052;-63
2021/07/27 12:06:13;;;;;;;6.88;4.05;;;25.60;61.90;;;;;;5049935;28;20037;-61
2021/07/27 12:08:41;;;;;;;5.35;3.83;;;25.50;62.00;;;;;;5045792;28;20100;-67
2021/07/27 12:11:09;;;;;;;5.43;3.67;;;25.50;62.10;;;;;;5042863;28;20376;-67
2021/07/27 12:13:37;;;;;;;6.50;4.10;;;25.50;62.30;;;;;;5049657;28;20151;-66
2021/07/27 12:16:05;;;;;;;9.10;4.13;;;25.40;62.30;;;;;;5046711;28;20052;-64
2021/07/27 12:18:32;;;;;;;4.43;3.50;;;25.40;62.90;;;;;;5048911;28;20045;-70
2021/07/27 12:20:59;;;;;;;4.38;3.70;;;25.40;62.40;;;;;;5051322;28;20052;-60
2021/07/27 12:23:26;;;;;;;7.97;3.47;;;25.40;62.40;;;;;;5050356;28;20837;-66
2021/07/27 12:26:06;;;;;;;5.43;3.63;;;25.40;62.70;;;;;;5045031;28;20057;-68
2021/07/27 12:28:33;;;;;;;7.35;4.03;;;25.40;62.80;;;;;;5054765;28;20071;-70
2021/07/27 12:31:01;;;;;;;7.70;4.13;;;25.40;62.90;;;;;;5061159;28;20036;-62
2021/07/27 12:33:31;;;;;;;4.40;3.38;;;25.30;62.90;;;;;;5052223;28;20110;-63
2021/07/27 12:36:00;;;;;;;5.18;4.15;;;25.30;62.90;;;;;;5051157;28;20067;-64
2021/07/27 12:38:28;;;;;;;4.47;3.47;;;25.40;62.90;;;;;;5053613;28;20041;-62
2021/07/27 12:40:55;;;;;;;5.40;3.92;;;25.40;62.90;;;;;;5052942;28;20262;-64
2021/07/27 12:43:24;;;;;;;6.15;3.90;;;25.40;62.90;;;;;;5057347;28;20126;-63
2021/07/27 12:45:51;;;;;;;5.28;3.70;;;25.40;63.00;;;;;;5053081;28;20041;-61
2021/07/27 12:48:18;;;;;;;6.63;4.05;;;25.30;63.00;;;;;;5052781;28;20131;-64
2021/07/27 12:50:46;;;;;;;6.25;3.55;;;25.30;63.10;;;;;;5057319;28;20084;-68
2021/07/27 12:53:13;;;;;;;4.53;3.45;;;25.30;63.00;;;;;;5055651;28;20127;-62
2021/07/27 12:55:40;;;;;;;5.40;3.70;;;25.30;62.90;;;;;;5050202;28;20144;-63
2021/07/27 12:58:07;;;;;;;8.40;4.47;;;25.30;63.00;;;;;;5047766;28;20059;-58
2021/07/27 13:00:34;;;;;;;6.55;4.13;;;25.30;63.10;;;;;;5049415;28;20048;-63
2021/07/27 13:03:03;;;;;;;7.15;4.32;;;25.30;63.20;;;;;;5052911;28;20060;-67
2021/07/27 13:05:32;;;;;;;8.05;3.35;;;25.30;63.20;;;;;;5051079;28;20144;-67
2021/07/27 13:07:59;;;;;;;5.87;4.03;;;25.30;63.10;;;;;;5056282;28;20053;-67
2021/07/27 13:10:26;;;;;;;3.58;3.20;;;25.30;63.10;;;;;;5053460;28;20071;-62
2021/07/27 13:12:53;;;;;;;4.18;3.40;;;25.30;62.90;;;;;;5053383;28;20135;-61